DAUH/HME METAR and TAF weather

Enter ICAO airport designator
Station Type Date Time Source
DAUH METAR 2019/08/19 08:00 UTC NOAA

DAUH 190800Z 14007KT CAVOK 35/10 Q1013


Station Type Date Time Source
DAUH Decoded METAR 2019/08/19 08:00 UTC NOAA

Station name not available
Aug 19, 2019 - 04:00 AM EDT / 2019.08.19 0800 UTC
Wind: from the SE (140 degrees) at 8 MPH (7 KT):0
Visibility: greater than 7 mile(s):0
Temperature: 95 F (35 C)
Dew Point: 50 F (10 C)
Relative Humidity: 21%
Pressure (altimeter): 29.91 in. Hg (1013 hPa)
ob: DAUH 190800Z 14007KT CAVOK 35/10 Q1013
cycle: 8

Station Type Date Time Source
DAUH TAF 2019/08/19 06:33 UTC NOAA

TAF DAUH 190500Z 1906/2006 12008KT CAVOK

Example: see airport list